Rose Creek, Minnesota
Current Conditions -  °F | °C
As of 6:15 PM on Sunday 23 Nov 2014 (Local Time) from KAUM Reporting Station
Overcast Overcast  
Wind Chill: 31°   Ceiling: 2200
Heat Index: 39°   Visibility: 10mi
Dew Point: 39°   Wind: 14mph
Humidity: 100%   Direction: 320°NW
Pressure: 29.35"   Gusts: NA
Location:  43.6°N, 92.83°W
Report Text: KAUM 240015Z AUTO 32012KT 10SM SCT009 OVC022 04/04 A2935 RMK AO2
Loading
Personal Weather Stations






























Interactive Weather Map New forecast layout! Learn more

10-Day Weather Forecast

Advertisements
Track Severe Weather on mobile